createdAt,value
2023-11-30T00:04:20.153Z,-0.05
2023-11-30T00:09:22.336Z,-0.06
2023-11-30T00:14:24.424Z,-0.08
2023-11-30T00:19:26.229Z,-0.08
2023-11-30T00:24:27.949Z,-0.05
2023-11-30T00:29:29.843Z,-0.02
2023-11-30T00:34:31.656Z,-0.03
2023-11-30T00:39:33.826Z,-0.07
2023-11-30T00:44:35.071Z,-0.1
2023-11-30T00:49:36.900Z,-0.12
2023-11-30T00:54:38.751Z,-0.07
2023-11-30T00:59:40.345Z,-0.03
2023-11-30T01:04:41.830Z,-0.02
2023-11-30T01:09:43.877Z,-0.03
2023-11-30T01:14:45.842Z,-0.06
2023-11-30T01:19:47.110Z,-0.1
2023-11-30T01:24:49.285Z,-0.13
2023-11-30T01:29:51.422Z,-0.12
2023-11-30T01:34:53.233Z,-0.12
2023-11-30T01:39:54.510Z,-0.17
2023-11-30T01:44:56.390Z,-0.27
2023-11-30T01:49:57.719Z,-0.35
2023-11-30T01:54:59.037Z,-0.43
2023-11-30T02:00:01.184Z,-0.47
2023-11-30T02:05:02.631Z,-0.5
2023-11-30T02:10:04.390Z,-0.54
2023-11-30T02:15:06.485Z,-0.62
2023-11-30T02:20:08.384Z,-0.68
2023-11-30T02:25:09.985Z,-0.73
2023-11-30T02:30:11.404Z,-0.78
2023-11-30T02:35:12.826Z,-0.79
2023-11-30T02:40:15.042Z,-0.77
2023-11-30T02:45:16.807Z,-0.8
2023-11-30T02:50:18.916Z,-0.85
2023-11-30T02:55:20.887Z,-0.91
2023-11-30T03:00:22.464Z,-0.95
2023-11-30T03:05:23.687Z,-0.99
2023-11-30T03:10:25.861Z,-0.97
2023-11-30T03:15:27.916Z,-0.96
2023-11-30T03:20:29.558Z,-0.97
2023-11-30T03:25:31.083Z,-1
2023-11-30T03:30:32.479Z,-1.02
2023-11-30T03:35:33.753Z,-1.03
2023-11-30T03:40:35.517Z,-1.04
2023-11-30T03:45:36.948Z,-1.04
2023-11-30T03:50:38.312Z,-0.99
2023-11-30T03:55:39.845Z,-0.99
2023-11-30T04:00:46.879Z,-0.99
2023-11-30T04:05:43.177Z,-1.02
2023-11-30T04:10:44.833Z,-1.01
2023-11-30T04:15:46.867Z,-1.01
2023-11-30T04:20:48.571Z,-0.94
2023-11-30T04:25:50.320Z,-0.9
2023-11-30T04:30:51.731Z,-0.88
2023-11-30T04:35:53.806Z,-0.89
2023-11-30T04:40:54.985Z,-0.91
2023-11-30T04:45:56.486Z,-0.92
2023-11-30T04:50:58.641Z,-0.89
2023-11-30T04:56:00.822Z,-0.86
2023-11-30T05:01:02.946Z,-0.84
2023-11-30T05:06:04.404Z,-0.83
2023-11-30T05:11:06.447Z,-0.84
2023-11-30T05:16:08.222Z,-0.85
2023-11-30T05:21:09.398Z,-0.85
2023-11-30T05:26:10.646Z,-0.87
2023-11-30T05:31:12.071Z,-0.91
2023-11-30T05:36:14.181Z,-0.95
2023-11-30T05:41:15.505Z,-0.99
2023-11-30T05:46:17.592Z,-1.04
2023-11-30T05:51:19.015Z,-1
2023-11-30T05:56:20.920Z,-0.94
2023-11-30T06:01:22.213Z,-0.88
2023-11-30T06:06:23.398Z,-0.78
2023-11-30T06:11:24.692Z,-0.67
2023-11-30T06:16:26.018Z,-0.62
2023-11-30T06:21:27.177Z,-0.57
2023-11-30T06:26:29.256Z,-0.54
2023-11-30T06:31:31.088Z,-0.49
2023-11-30T06:36:32.838Z,-0.39
2023-11-30T06:41:34.155Z,-0.27
2023-11-30T06:46:35.995Z,-0.17
2023-11-30T06:51:38.135Z,-0.24
2023-11-30T06:56:39.648Z,-0.37
2023-11-30T07:01:41.845Z,-0.45
2023-11-30T07:06:43.675Z,-0.42
2023-11-30T07:11:45.090Z,-0.44
2023-11-30T07:16:46.985Z,-0.44
2023-11-30T07:21:49.041Z,-0.5
2023-11-30T07:26:50.348Z,-0.52
2023-11-30T07:31:51.576Z,-0.54
2023-11-30T07:36:53.386Z,-0.47
2023-11-30T07:41:55.069Z,-0.37
2023-11-30T07:46:56.786Z,-0.21
2023-11-30T07:51:58.977Z,-0.07
2023-11-30T07:57:00.225Z,-0.02
2023-11-30T08:02:02.066Z,0.11
2023-11-30T08:07:04.191Z,0.36
2023-11-30T08:12:05.529Z,0.55
2023-11-30T08:17:07.010Z,0.84
2023-11-30T08:22:09.191Z,1.16
2023-11-30T08:27:10.745Z,1.43
2023-11-30T08:32:12.272Z,1.52
2023-11-30T08:37:13.931Z,1.62
2023-11-30T08:42:15.925Z,1.81
2023-11-30T08:47:17.439Z,2.02
2023-11-30T08:52:19.041Z,2.19
2023-11-30T08:57:20.251Z,2.34
2023-11-30T09:02:21.951Z,2.42
2023-11-30T09:07:23.937Z,2.43
2023-11-30T09:12:25.302Z,2.41
2023-11-30T09:17:26.830Z,2.41
2023-11-30T09:22:28.181Z,2.4
2023-11-30T09:27:30.049Z,2.43
2023-11-30T09:32:31.521Z,2.33
2023-11-30T09:37:33.464Z,2.26
2023-11-30T09:42:34.760Z,2.15
2023-11-30T09:47:36.763Z,1.91
2023-11-30T09:52:37.943Z,1.83
2023-11-30T09:57:45.791Z,1.88
2023-11-30T10:27:57.586Z,1.49
2023-11-30T10:32:59.219Z,1.52
2023-11-30T11:13:13.697Z,0.65
2023-11-30T11:28:19.132Z,0.57
2023-11-30T12:03:31.143Z,0.58
2023-11-30T12:38:42.761Z,0.8
2023-11-30T12:43:44.163Z,0.86
2023-11-30T12:48:45.519Z,0.95
2023-11-30T12:53:47.187Z,0.99
2023-11-30T12:58:48.443Z,1.02
2023-11-30T13:03:50.122Z,0.89
2023-11-30T13:08:51.419Z,0.91
2023-11-30T13:13:55.003Z,0.95
2023-11-30T13:18:54.835Z,0.88
2023-11-30T13:23:56.389Z,0.91
2023-11-30T13:28:57.870Z,0.88
2023-11-30T13:33:59.453Z,0.89
2023-11-30T13:39:00.885Z,0.87
2023-11-30T13:44:02.706Z,0.89
2023-11-30T13:49:04.765Z,0.96
2023-11-30T13:54:06.308Z,1.02
2023-11-30T13:59:08.386Z,0.97
2023-11-30T14:04:09.876Z,1
2023-11-30T14:09:11.553Z,1.09
2023-11-30T14:14:12.831Z,1.04
2023-11-30T14:19:14.762Z,1.11
2023-11-30T14:24:16.964Z,1.25
2023-11-30T14:29:18.227Z,1.39
2023-11-30T14:34:19.753Z,1.46
2023-11-30T14:39:21.748Z,1.5
2023-11-30T14:44:23.472Z,1.55
2023-11-30T14:49:24.940Z,1.55
2023-11-30T14:54:26.670Z,1.67
2023-11-30T14:59:27.985Z,1.65
2023-11-30T15:04:29.842Z,1.58
2023-11-30T15:09:36.432Z,1.54
2023-11-30T15:14:33.036Z,1.54
2023-11-30T15:19:34.405Z,1.51
2023-11-30T15:24:35.738Z,1.55
2023-11-30T15:29:37.700Z,1.5
2023-11-30T15:34:38.944Z,1.45
2023-11-30T15:39:40.685Z,1.42
2023-11-30T15:44:42.105Z,1.31
2023-11-30T15:49:43.400Z,1.35
2023-11-30T15:54:45.020Z,1.4
2023-11-30T15:59:46.839Z,1.52
2023-11-30T16:04:48.220Z,1.59
2023-11-30T16:09:50.170Z,1.67
2023-11-30T16:14:52.092Z,1.69
2023-11-30T16:19:53.609Z,1.65
2023-11-30T16:24:55.016Z,1.68
2023-11-30T16:29:56.984Z,1.72
2023-11-30T16:34:59.067Z,1.79
2023-11-30T16:40:01.248Z,1.88
2023-11-30T16:45:02.622Z,1.88
2023-11-30T16:50:04.184Z,1.88
2023-11-30T16:55:05.709Z,1.91
2023-11-30T17:00:07.489Z,1.93
2023-11-30T17:05:09.181Z,1.95
2023-11-30T17:10:11.145Z,1.96
2023-11-30T17:15:13.076Z,2.03
2023-11-30T17:20:14.275Z,1.93
2023-11-30T17:25:16.056Z,1.81
2023-11-30T17:30:17.673Z,1.68
2023-11-30T17:35:19.055Z,1.55
2023-11-30T17:40:20.222Z,1.52
2023-11-30T17:45:21.827Z,1.36
2023-11-30T17:50:23.431Z,1.22
2023-11-30T17:55:25.034Z,1.12
2023-11-30T18:00:27.803Z,1.04
2023-11-30T18:05:28.078Z,0.97
2023-11-30T18:10:29.790Z,0.91
2023-11-30T18:15:31.738Z,0.91
2023-11-30T18:20:33.316Z,0.9
2023-11-30T18:25:35.311Z,0.85
2023-11-30T18:30:36.760Z,0.69
2023-11-30T18:35:38.048Z,0.56
2023-11-30T18:40:39.965Z,0.49
2023-11-30T18:45:42.000Z,0.47
2023-11-30T18:50:43.760Z,0.48
2023-11-30T18:55:45.027Z,0.5
2023-11-30T19:00:46.376Z,0.51
2023-11-30T19:05:48.242Z,0.47
2023-11-30T19:10:49.915Z,0.44
2023-11-30T19:15:51.241Z,0.39
2023-11-30T19:20:53.146Z,0.39
2023-11-30T19:25:54.515Z,0.4
2023-11-30T19:30:55.769Z,0.34
2023-11-30T19:35:57.652Z,0.23
2023-11-30T19:40:59.110Z,0.18
2023-11-30T19:46:03.051Z,0.17
2023-11-30T19:51:02.536Z,0.15
2023-11-30T19:56:04.642Z,0.18
2023-11-30T20:01:06.348Z,0.25
2023-11-30T20:06:07.855Z,0.26
2023-11-30T20:11:09.894Z,0.25
2023-11-30T20:16:11.758Z,0.25
2023-11-30T20:21:13.809Z,0.25
2023-11-30T20:26:15.382Z,0.28
2023-11-30T20:31:16.740Z,0.32
2023-11-30T20:36:18.311Z,0.35
2023-11-30T20:41:20.330Z,0.34
2023-11-30T20:46:21.904Z,0.25
2023-11-30T20:51:23.712Z,0.25
2023-11-30T20:56:30.660Z,0.24
2023-11-30T21:01:27.805Z,0.3
2023-11-30T21:06:29.376Z,0.33
2023-11-30T21:11:30.872Z,0.32
2023-11-30T21:16:32.178Z,0.32
2023-11-30T21:21:34.016Z,0.29
2023-11-30T21:26:35.739Z,0.28
2023-11-30T21:31:37.806Z,0.27
2023-11-30T21:36:39.331Z,0.34
2023-11-30T21:41:41.037Z,0.43
2023-11-30T21:46:42.651Z,0.44
2023-11-30T21:51:44.455Z,0.47
2023-11-30T21:56:46.406Z,0.47
2023-11-30T22:01:48.496Z,0.48
2023-11-30T22:06:49.595Z,0.48
2023-11-30T22:11:50.987Z,0.55
2023-11-30T22:16:52.883Z,0.62
2023-11-30T22:21:54.560Z,0.6
2023-11-30T22:26:56.158Z,0.57
2023-11-30T22:31:57.680Z,0.58
2023-11-30T22:36:59.326Z,0.57
2023-11-30T22:42:00.496Z,0.61
2023-11-30T22:47:02.541Z,0.63
2023-11-30T22:52:03.760Z,0.66
2023-11-30T22:57:05.190Z,0.68
2023-11-30T23:02:06.854Z,0.69
2023-11-30T23:07:08.112Z,0.71
2023-11-30T23:12:09.897Z,0.72
2023-11-30T23:17:12.041Z,0.76
2023-11-30T23:22:13.283Z,0.81
2023-11-30T23:27:14.805Z,0.83
2023-11-30T23:32:16.753Z,0.84
2023-11-30T23:37:18.250Z,0.85
2023-11-30T23:42:19.517Z,0.84
2023-11-30T23:47:21.611Z,0.87
2023-11-30T23:52:23.147Z,0.9
2023-11-30T23:57:24.772Z,0.91
